createdAt,value
2022-12-11T00:02:15.428Z,-1.35
2022-12-11T00:04:43.125Z,-1.38
2022-12-11T00:07:10.580Z,-1.47
2022-12-11T00:09:38.295Z,-1.62
2022-12-11T00:12:07.359Z,-1.71
2022-12-11T00:14:35.066Z,-1.03
2022-12-11T00:17:02.559Z,-1.42
2022-12-11T00:19:31.682Z,-1.53
2022-12-11T00:21:59.116Z,-1.03
2022-12-11T00:24:26.615Z,-1.44
2022-12-11T00:26:54.030Z,-1.83
2022-12-11T00:29:21.451Z,-1.47
2022-12-11T00:31:48.975Z,-1.69
2022-12-11T00:34:16.439Z,-1.67
2022-12-11T00:36:45.190Z,-1.76
2022-12-11T00:39:12.646Z,-1.66
2022-12-11T00:41:40.141Z,-1.69
2022-12-11T00:44:07.608Z,-1.44
2022-12-11T00:46:35.071Z,-1.27
2022-12-11T00:49:02.514Z,-1.51
2022-12-11T00:51:30.136Z,-1.05
2022-12-11T00:53:58.922Z,-1.35
2022-12-11T00:56:26.411Z,-1.79
2022-12-11T00:58:53.852Z,-1.95
2022-12-11T01:01:24.452Z,-1.46
2022-12-11T01:03:52.199Z,-1.89
2022-12-11T01:06:21.586Z,-1.65
2022-12-11T01:09:10.091Z,-1.22
2022-12-11T01:11:38.014Z,-1.59
2022-12-11T01:14:06.060Z,-1.35
2022-12-11T01:16:33.838Z,-1.02
2022-12-11T01:19:01.275Z,-1.34
2022-12-11T01:21:28.799Z,-1.49
2022-12-11T01:23:56.351Z,-1.92
2022-12-11T01:26:23.888Z,-1.35
2022-12-11T01:28:53.181Z,-1.70
2022-12-11T01:31:22.117Z,-1.49
2022-12-11T01:33:49.897Z,-2.07
2022-12-11T01:36:19.784Z,-2.08
2022-12-11T01:38:48.477Z,-1.69
2022-12-11T01:41:17.074Z,-1.67
2022-12-11T01:43:59.285Z,-1.79
2022-12-11T01:46:27.667Z,-1.73
2022-12-11T01:48:56.652Z,-1.59
2022-12-11T01:51:25.402Z,-1.47
2022-12-11T01:53:59.999Z,-1.71
2022-12-11T01:56:27.909Z,-1.62
2022-12-11T01:59:00.757Z,-1.23
2022-12-11T02:01:34.122Z,-1.68
2022-12-11T02:04:02.450Z,-1.79
2022-12-11T02:06:36.227Z,-1.83
2022-12-11T02:09:06.349Z,-1.52
2022-12-11T02:11:44.494Z,-1.80
2022-12-11T02:14:20.981Z,-1.75
2022-12-11T02:16:56.587Z,-1.85
2022-12-11T02:19:44.604Z,-1.43
2022-12-11T02:22:23.405Z,-1.38
2022-12-11T02:25:05.143Z,-1.87
2022-12-11T02:27:38.148Z,-1.74
2022-12-11T02:30:08.932Z,-1.76
2022-12-11T02:32:41.891Z,-1.21
2022-12-11T02:35:14.100Z,-1.35
2022-12-11T02:37:44.887Z,-1.86
2022-12-11T02:40:15.003Z,-1.80
2022-12-11T02:42:45.059Z,-1.53
2022-12-11T02:45:15.651Z,-1.52
2022-12-11T02:47:45.701Z,-2.10
2022-12-11T02:50:16.078Z,-1.93
2022-12-11T02:52:44.986Z,-1.83
2022-12-11T02:55:15.720Z,-1.57
2022-12-11T02:57:46.415Z,-1.82
2022-12-11T03:00:16.622Z,-1.59
2022-12-11T03:02:44.711Z,-1.26
2022-12-11T03:05:13.957Z,-1.34
2022-12-11T03:07:42.782Z,-1.51
2022-12-11T03:10:14.741Z,-1.74
2022-12-11T03:12:47.028Z,-1.65
2022-12-11T03:15:22.645Z,-1.74
2022-12-11T03:18:01.611Z,-2.13
2022-12-11T03:20:37.932Z,-1.62
2022-12-11T03:23:13.989Z,-1.80
2022-12-11T03:25:47.832Z,-2.08
2022-12-11T03:28:19.828Z,-1.94
2022-12-11T03:30:52.316Z,-2.22
2022-12-11T03:33:24.477Z,-2.25
2022-12-11T03:35:56.867Z,-2.05
2022-12-11T03:38:28.710Z,-1.71
2022-12-11T03:41:01.715Z,-1.97
2022-12-11T03:43:32.582Z,-1.78
2022-12-11T03:46:02.419Z,-1.99
2022-12-11T03:48:35.060Z,-2.07
2022-12-11T03:51:06.011Z,-2.01
2022-12-11T03:53:35.373Z,-1.76
2022-12-11T03:56:05.069Z,-2.26
2022-12-11T03:58:33.182Z,-2.23
2022-12-11T04:01:02.046Z,-1.81
2022-12-11T04:03:29.567Z,-1.79
2022-12-11T04:05:57.219Z,-2.18
2022-12-11T04:08:25.330Z,-1.87
2022-12-11T04:11:13.917Z,-1.79
2022-12-11T04:13:42.609Z,-1.06
2022-12-11T04:16:10.540Z,-1.16
2022-12-11T04:18:55.818Z,-1.97
2022-12-11T04:21:46.452Z,-1.57
2022-12-11T04:24:16.398Z,-1.59
2022-12-11T04:26:44.130Z,-1.43
2022-12-11T04:29:11.713Z,-0.86
2022-12-11T04:31:40.620Z,-1.88
2022-12-11T04:34:08.119Z,-1.66
2022-12-11T04:36:35.909Z,-1.31
2022-12-11T04:39:04.020Z,-1.33
2022-12-11T04:41:31.747Z,-0.92
2022-12-11T04:43:59.159Z,-1.19
2022-12-11T04:46:26.789Z,-0.81
2022-12-11T04:48:57.655Z,-1.51
2022-12-11T04:51:25.407Z,-0.92
2022-12-11T04:53:52.909Z,-0.79
2022-12-11T04:56:21.114Z,-0.71
2022-12-11T04:58:49.316Z,-0.72
2022-12-11T05:01:18.440Z,-0.67
2022-12-11T05:03:45.913Z,-1.18
2022-12-11T05:06:15.404Z,-0.85
2022-12-11T05:08:45.067Z,-1.19
2022-12-11T05:11:15.635Z,-0.76
2022-12-11T05:13:43.633Z,-1.08
2022-12-11T05:16:13.157Z,-1.11
2022-12-11T05:18:40.890Z,-0.88
2022-12-11T05:21:10.507Z,-0.73
2022-12-11T05:23:39.686Z,-0.83
2022-12-11T05:26:07.764Z,-0.75
2022-12-11T05:28:37.793Z,-0.77
2022-12-11T05:31:08.240Z,-0.77
2022-12-11T05:33:35.987Z,-0.78
2022-12-11T05:36:06.797Z,-0.82
2022-12-11T05:38:34.468Z,-0.79
2022-12-11T05:41:05.792Z,-0.77
2022-12-11T05:43:35.437Z,-0.75
2022-12-11T05:46:07.284Z,-0.74
2022-12-11T05:48:34.859Z,-0.79
2022-12-11T05:51:03.363Z,-0.80
2022-12-11T05:53:31.379Z,-0.83
2022-12-11T05:56:04.601Z,-0.85
2022-12-11T05:58:32.730Z,-0.90
2022-12-11T06:01:00.307Z,-0.85
2022-12-11T06:03:27.779Z,-0.86
2022-12-11T06:05:55.757Z,-0.90
2022-12-11T06:08:23.232Z,-0.94
2022-12-11T06:10:51.798Z,-0.92
2022-12-11T06:13:20.542Z,-0.92
2022-12-11T06:15:47.976Z,-1.04
2022-12-11T06:18:15.434Z,-0.99
2022-12-11T06:20:42.890Z,-1.01
2022-12-11T06:23:10.388Z,-1.02
2022-12-11T06:25:39.841Z,-1.05
2022-12-11T06:28:07.990Z,-1.43
2022-12-11T06:30:38.962Z,-1.43
2022-12-11T06:33:07.290Z,-1.20
2022-12-11T06:35:41.419Z,-1.70
2022-12-11T06:38:10.441Z,-1.57
2022-12-11T06:40:38.129Z,-2.20
2022-12-11T06:43:05.598Z,-2.60
2022-12-11T06:45:33.207Z,-2.83
2022-12-11T06:48:02.007Z,-2.30
2022-12-11T06:50:29.572Z,-2.65
2022-12-11T06:52:57.416Z,-2.66
2022-12-11T06:55:24.880Z,-2.66
2022-12-11T06:57:52.323Z,-2.81
2022-12-11T07:00:19.768Z,-3.18
2022-12-11T07:02:47.195Z,-2.79
2022-12-11T07:05:16.275Z,-3.18
2022-12-11T07:07:43.857Z,-3.19
2022-12-11T07:10:11.832Z,-2.56
2022-12-11T07:12:39.483Z,-2.59
2022-12-11T07:15:08.195Z,-2.94
2022-12-11T07:17:35.926Z,-3.54
2022-12-11T07:20:04.780Z,-2.21
2022-12-11T07:22:33.606Z,-2.65
2022-12-11T07:25:01.554Z,-2.62
2022-12-11T07:27:29.851Z,-1.86
2022-12-11T07:29:57.305Z,-2.42
2022-12-11T07:32:24.922Z,-3.07
2022-12-11T07:34:52.502Z,-1.95
2022-12-11T07:37:20.028Z,-1.75
2022-12-11T07:39:48.900Z,-2.10
2022-12-11T07:42:16.342Z,-1.58
2022-12-11T07:44:43.779Z,-1.52
2022-12-11T07:47:11.345Z,-1.77
2022-12-11T07:49:38.931Z,-2.41
2022-12-11T07:52:06.383Z,-1.97
2022-12-11T07:54:33.982Z,-1.82
2022-12-11T07:57:02.798Z,-1.88
2022-12-11T07:59:30.270Z,-1.40
2022-12-11T08:01:57.748Z,-2.46
2022-12-11T08:04:25.239Z,-1.86
2022-12-11T08:06:52.716Z,-1.58
2022-12-11T08:09:22.480Z,-2.18
2022-12-11T08:11:51.273Z,-2.70
2022-12-11T08:14:20.392Z,-1.66
2022-12-11T08:16:48.181Z,-1.37
2022-12-11T08:19:16.230Z,-1.71
2022-12-11T08:21:43.732Z,-2.52
2022-12-11T08:24:11.434Z,-2.57
2022-12-11T08:26:39.031Z,-1.88
2022-12-11T08:29:06.505Z,-2.03
2022-12-11T08:31:35.556Z,-2.55
2022-12-11T08:34:03.052Z,-1.93
2022-12-11T08:36:30.540Z,-2.43
2022-12-11T08:38:58.466Z,-2.07
2022-12-11T08:41:27.532Z,-2.60
2022-12-11T08:43:55.698Z,-1.83
2022-12-11T08:46:24.687Z,-2.41
2022-12-11T08:48:53.932Z,-1.52
2022-12-11T08:51:24.478Z,-1.79
2022-12-11T08:53:52.279Z,-2.28
2022-12-11T08:56:21.467Z,-2.39
2022-12-11T08:58:48.963Z,-2.25
2022-12-11T09:01:19.379Z,-1.83
2022-12-11T09:03:46.910Z,-1.93
2022-12-11T09:06:18.548Z,-2.51
2022-12-11T09:08:52.265Z,-2.00
2022-12-11T09:11:22.651Z,-2.47
2022-12-11T09:13:50.517Z,-2.11
2022-12-11T09:16:19.951Z,-2.64
2022-12-11T09:18:48.590Z,-2.59
2022-12-11T09:21:19.697Z,-2.59
2022-12-11T09:23:47.615Z,-2.29
2022-12-11T09:26:17.194Z,-2.29
2022-12-11T09:28:47.061Z,-2.48
2022-12-11T09:31:17.207Z,-2.20
2022-12-11T09:33:45.417Z,-2.31
2022-12-11T09:36:13.507Z,-2.15
2022-12-11T09:38:44.169Z,-2.23
2022-12-11T09:41:37.223Z,-1.85
2022-12-11T09:44:19.001Z,-1.95
2022-12-11T09:46:46.893Z,-2.07
2022-12-11T09:49:24.335Z,-2.02
2022-12-11T09:52:01.496Z,-2.04
2022-12-11T09:54:30.454Z,-1.95
2022-12-11T09:57:03.998Z,-2.05
2022-12-11T09:59:42.255Z,-2.10
2022-12-11T10:02:25.439Z,-2.26
2022-12-11T10:05:04.094Z,-2.16
2022-12-11T10:07:36.538Z,-2.15
2022-12-11T10:10:14.398Z,-2.02
2022-12-11T10:12:48.624Z,-1.94
2022-12-11T10:15:26.938Z,-2.01
2022-12-11T10:18:04.355Z,-1.85
2022-12-11T10:22:02.913Z,-2.05
2022-12-11T10:27:31.247Z,-1.93
2022-12-11T10:30:06.409Z,-2.18
2022-12-11T10:32:43.885Z,-2.03
2022-12-11T10:35:20.055Z,-2.13
2022-12-11T10:37:48.878Z,-2.02
2022-12-11T10:40:17.561Z,-2.28
2022-12-11T10:42:53.136Z,-2.03
2022-12-11T10:45:21.036Z,-2.21
2022-12-11T10:47:48.618Z,-2.40
2022-12-11T10:50:23.711Z,-2.40
2022-12-11T10:52:54.035Z,-2.45
2022-12-11T10:55:25.372Z,-2.42
2022-12-11T10:57:58.859Z,-2.20
2022-12-11T11:00:37.439Z,-2.41
2022-12-11T11:03:06.628Z,-2.16
2022-12-11T11:05:35.383Z,-2.11
2022-12-11T11:08:15.831Z,-2.26
2022-12-11T11:10:54.719Z,-2.44
2022-12-11T11:13:23.499Z,-2.27
2022-12-11T11:15:52.290Z,-2.11
2022-12-11T11:18:25.338Z,-2.25
2022-12-11T11:20:53.473Z,-2.26
2022-12-11T11:23:24.270Z,-2.14
2022-12-11T11:25:54.433Z,-2.05
2022-12-11T11:28:25.145Z,-2.13
2022-12-11T11:31:03.229Z,-2.03
2022-12-11T11:33:32.361Z,-2.12
2022-12-11T11:36:02.536Z,-2.02
2022-12-11T11:38:35.408Z,-1.99
2022-12-11T11:41:15.310Z,-2.11
2022-12-11T11:43:47.360Z,-1.81
2022-12-11T11:46:20.158Z,-1.59
2022-12-11T11:48:55.145Z,-2.12
2022-12-11T11:51:28.134Z,-2.23
2022-12-11T11:54:01.040Z,-2.53
2022-12-11T11:56:34.986Z,-2.09
2022-12-11T11:59:12.634Z,-2.10
2022-12-11T12:01:42.694Z,-1.97
2022-12-11T12:04:11.932Z,-1.99
2022-12-11T12:06:58.483Z,-2.32
2022-12-11T12:09:43.376Z,-2.41
2022-12-11T12:12:25.488Z,-2.30
2022-12-11T12:15:09.411Z,-2.15
2022-12-11T12:17:49.252Z,-2.06
2022-12-11T12:20:29.133Z,-2.35
2022-12-11T12:23:13.571Z,-1.73
2022-12-11T12:25:49.227Z,-2.16
2022-12-11T12:28:28.325Z,-2.32
2022-12-11T12:31:10.149Z,-2.43
2022-12-11T12:33:48.172Z,-2.22
2022-12-11T12:36:22.440Z,-2.25
2022-12-11T12:38:55.596Z,-2.45
2022-12-11T12:41:37.492Z,-2.07
2022-12-11T12:44:15.633Z,-2.59
2022-12-11T12:47:00.324Z,-2.40
2022-12-11T12:49:40.981Z,-2.43
2022-12-11T12:52:14.749Z,-2.66
2022-12-11T12:55:05.089Z,-2.64
2022-12-11T12:57:36.039Z,-2.35
2022-12-11T13:00:13.052Z,-2.39
2022-12-11T13:02:50.279Z,-2.55
2022-12-11T13:05:22.788Z,-2.67
2022-12-11T13:07:54.514Z,-2.63
2022-12-11T13:10:29.341Z,-2.53
2022-12-11T13:12:58.984Z,-2.67
2022-12-11T13:15:38.933Z,-2.49
2022-12-11T13:18:34.835Z,-2.29
2022-12-11T13:21:03.243Z,-2.43
2022-12-11T13:23:33.714Z,-2.48
2022-12-11T13:26:02.804Z,-2.51
2022-12-11T13:28:34.549Z,-2.42
2022-12-11T13:31:05.247Z,-2.20
2022-12-11T13:33:34.407Z,-2.47
2022-12-11T13:36:24.133Z,-2.19
2022-12-11T13:38:55.773Z,-2.38
2022-12-11T13:41:24.003Z,-2.32
2022-12-11T13:43:53.938Z,-2.48
2022-12-11T13:46:26.371Z,-2.50
2022-12-11T13:48:57.143Z,-2.37
2022-12-11T13:51:26.713Z,-2.55
2022-12-11T13:54:05.936Z,-2.39
2022-12-11T13:56:34.234Z,-2.20
2022-12-11T13:59:02.989Z,-2.46
2022-12-11T14:01:34.770Z,-2.39
2022-12-11T14:04:05.331Z,-2.16
2022-12-11T14:06:35.443Z,-2.44
2022-12-11T14:09:05.220Z,-1.94
2022-12-11T14:11:36.807Z,-2.18
2022-12-11T14:14:07.693Z,-2.67
2022-12-11T14:16:35.782Z,-2.49
2022-12-11T14:19:06.833Z,-2.64
2022-12-11T14:21:34.672Z,-2.74
2022-12-11T14:24:06.412Z,-2.62
2022-12-11T14:26:37.795Z,-2.83
2022-12-11T14:29:06.915Z,-2.53
2022-12-11T14:31:37.357Z,-2.71
2022-12-11T14:34:13.278Z,-2.75
2022-12-11T14:36:43.252Z,-2.61
2022-12-11T14:39:15.498Z,-2.38
2022-12-11T14:41:48.239Z,-2.66
2022-12-11T14:44:19.336Z,-2.82
2022-12-11T14:46:51.105Z,-2.74
2022-12-11T14:49:21.972Z,-2.62
2022-12-11T14:51:50.312Z,-2.84
2022-12-11T14:54:24.384Z,-2.91
2022-12-11T14:56:52.077Z,-2.92
2022-12-11T14:59:27.019Z,-2.59
2022-12-11T15:02:03.263Z,-2.54
2022-12-11T15:04:33.353Z,-2.42
2022-12-11T15:07:01.364Z,-2.42
2022-12-11T15:09:30.694Z,-2.78
2022-12-11T15:11:59.961Z,-2.75
2022-12-11T15:14:29.508Z,-3.18
2022-12-11T15:16:58.453Z,-2.51
2022-12-11T15:19:30.303Z,-2.66
2022-12-11T15:22:03.571Z,-2.12
2022-12-11T15:24:39.150Z,-2.71
2022-12-11T15:27:07.301Z,-3.19
2022-12-11T15:29:37.966Z,-3.17
2022-12-11T15:32:19.341Z,-2.82
2022-12-11T15:34:49.038Z,-2.64
2022-12-11T15:37:24.511Z,-2.80
2022-12-11T15:39:52.010Z,-2.72
2022-12-11T15:42:26.714Z,-3.07
2022-12-11T15:44:56.323Z,-2.94
2022-12-11T15:47:26.447Z,-3.11
2022-12-11T15:49:56.133Z,-3.06
2022-12-11T15:52:23.635Z,-2.80
2022-12-11T15:54:51.095Z,-2.55
2022-12-11T15:57:21.412Z,-2.97
2022-12-11T15:59:50.349Z,-3.04
2022-12-11T16:02:19.441Z,-2.91
2022-12-11T16:04:47.059Z,-2.91
2022-12-11T16:07:18.361Z,-2.22
2022-12-11T16:09:46.297Z,-2.24
2022-12-11T16:12:14.252Z,-2.90
2022-12-11T16:14:41.838Z,-2.47
2022-12-11T16:17:10.452Z,-2.56
2022-12-11T16:19:40.407Z,-2.24
2022-12-11T16:22:08.759Z,-2.92
2022-12-11T16:24:36.773Z,-2.46
2022-12-11T16:27:05.099Z,-2.55
2022-12-11T16:29:34.859Z,-2.48
2022-12-11T16:32:02.366Z,-2.41
2022-12-11T16:34:29.852Z,-2.69
2022-12-11T16:37:00.080Z,-2.79
2022-12-11T16:39:27.920Z,-2.67
2022-12-11T16:41:55.391Z,-2.88
2022-12-11T16:44:24.695Z,-2.31
2022-12-11T16:46:52.659Z,-2.41
2022-12-11T16:49:20.553Z,-2.73
2022-12-11T16:51:49.195Z,-2.75
2022-12-11T16:54:19.320Z,-2.91
2022-12-11T16:56:46.788Z,-2.60
2022-12-11T16:59:14.229Z,-2.26
2022-12-11T17:01:41.765Z,-2.63
2022-12-11T17:04:09.323Z,-2.23
2022-12-11T17:06:36.797Z,-2.50
2022-12-11T17:09:04.467Z,-2.07
2022-12-11T17:11:33.300Z,-2.63
2022-12-11T17:14:01.403Z,-2.02
2022-12-11T17:16:30.353Z,-2.51
2022-12-11T17:18:58.484Z,-2.62
2022-12-11T17:21:26.186Z,-2.28
2022-12-11T17:23:53.690Z,-1.82
2022-12-11T17:26:21.179Z,-2.01
2022-12-11T17:28:50.008Z,-2.34
2022-12-11T17:31:20.202Z,-2.33
2022-12-11T17:33:48.050Z,-2.55
2022-12-11T17:36:18.011Z,-2.10
2022-12-11T17:38:45.837Z,-2.66
2022-12-11T17:41:20.078Z,-2.03
2022-12-11T17:43:50.135Z,-2.02
2022-12-11T17:46:18.144Z,-2.14
2022-12-11T17:48:45.688Z,-1.91
2022-12-11T17:51:20.853Z,-1.49
2022-12-11T17:53:48.334Z,-2.71
2022-12-11T17:56:16.354Z,-2.38
2022-12-11T17:58:43.927Z,-1.53
2022-12-11T18:01:13.203Z,-1.80
2022-12-11T18:03:41.096Z,-1.49
2022-12-11T18:06:10.603Z,-1.35
2022-12-11T18:08:38.224Z,-1.70
2022-12-11T18:11:07.121Z,-1.98
2022-12-11T18:13:35.100Z,-2.00
2022-12-11T18:16:04.431Z,-2.05
2022-12-11T18:18:33.631Z,-1.66
2022-12-11T18:21:01.636Z,-1.70
2022-12-11T18:23:29.495Z,-1.57
2022-12-11T18:25:56.973Z,-1.46
2022-12-11T18:28:24.573Z,-1.78
2022-12-11T18:30:52.078Z,-2.25
2022-12-11T18:33:19.636Z,-2.46
2022-12-11T18:35:50.196Z,-2.52
2022-12-11T18:38:17.726Z,-2.64
2022-12-11T18:40:45.326Z,-2.51
2022-12-11T18:43:13.266Z,-2.61
2022-12-11T18:45:41.667Z,-2.05
2022-12-11T18:48:09.704Z,-1.74
2022-12-11T18:50:37.205Z,-2.49
2022-12-11T18:53:05.990Z,-2.59
2022-12-11T18:55:33.423Z,-2.01
2022-12-11T18:58:00.874Z,-2.29
2022-12-11T19:00:28.392Z,-2.02
2022-12-11T19:02:55.963Z,-2.69
2022-12-11T19:05:23.418Z,-2.65
2022-12-11T19:07:50.924Z,-2.49
2022-12-11T19:10:19.805Z,-2.05
2022-12-11T19:12:47.274Z,-2.47
2022-12-11T19:15:17.432Z,-2.13
2022-12-11T19:17:48.465Z,-2.62
2022-12-11T19:20:47.393Z,-2.83
2022-12-11T19:23:04.207Z,-2.63
2022-12-11T19:25:33.474Z,-2.52
2022-12-11T19:28:00.817Z,-2.63
2022-12-11T19:30:28.448Z,-2.06
2022-12-11T19:32:56.012Z,-2.05
2022-12-11T19:35:23.456Z,-2.18
2022-12-11T19:37:50.933Z,-2.80
2022-12-11T19:40:20.568Z,-2.39
2022-12-11T19:42:49.367Z,-2.50
2022-12-11T19:45:16.879Z,-2.67
2022-12-11T19:47:44.444Z,-2.88
2022-12-11T19:50:11.991Z,-2.60
2022-12-11T19:52:45.853Z,-2.73
2022-12-11T19:55:14.908Z,-2.26
2022-12-11T19:57:42.629Z,-2.67
2022-12-11T20:00:12.659Z,-2.74
2022-12-11T20:02:40.264Z,-2.04
2022-12-11T20:05:09.344Z,-2.05
2022-12-11T20:07:37.218Z,-2.09
2022-12-11T20:10:05.211Z,-2.53
2022-12-11T20:12:32.686Z,-2.64
2022-12-11T20:15:00.241Z,-2.04
2022-12-11T20:17:29.086Z,-2.51
2022-12-11T20:19:56.617Z,-2.80
2022-12-11T20:22:24.058Z,-2.39
2022-12-11T20:24:51.576Z,-2.55
2022-12-11T20:27:19.019Z,-2.30
2022-12-11T20:29:46.487Z,-2.83
2022-12-11T20:32:14.107Z,-2.67
2022-12-11T20:34:43.079Z,-2.50
2022-12-11T20:37:10.611Z,-2.94
2022-12-11T20:39:38.118Z,-2.64
2022-12-11T20:42:05.684Z,-2.80
2022-12-11T20:44:33.211Z,-2.90
2022-12-11T20:47:00.670Z,-2.78
2022-12-11T20:49:28.146Z,-2.70
2022-12-11T20:51:56.944Z,-2.96
2022-12-11T20:54:24.371Z,-2.79
2022-12-11T20:56:52.374Z,-2.63
2022-12-11T20:59:19.847Z,-2.58
2022-12-11T21:01:47.379Z,-2.80
2022-12-11T21:04:14.843Z,-2.62
2022-12-11T21:06:42.762Z,-2.35
2022-12-11T21:09:13.686Z,-2.30
2022-12-11T21:11:41.534Z,-2.70
2022-12-11T21:14:08.989Z,-2.79
2022-12-11T21:16:37.957Z,-2.73
2022-12-11T21:19:06.619Z,-2.64
2022-12-11T21:21:34.360Z,-2.72
2022-12-11T21:24:01.891Z,-2.64
2022-12-11T21:26:30.739Z,-2.62
2022-12-11T21:28:58.236Z,-2.77
2022-12-11T21:31:25.962Z,-2.62
2022-12-11T21:33:53.522Z,-2.88
2022-12-11T21:36:21.036Z,-2.69
2022-12-11T21:38:49.196Z,-2.89
2022-12-11T21:41:18.406Z,-2.81
2022-12-11T21:46:36.789Z,-2.72
2022-12-11T21:49:04.665Z,-2.47
2022-12-11T21:51:38.537Z,-2.76
2022-12-11T21:54:10.082Z,-2.92
2022-12-11T21:56:37.606Z,-2.91
2022-12-11T21:59:07.058Z,-2.66
2022-12-11T22:01:38.024Z,-2.08
2022-12-11T22:04:07.365Z,-2.35
2022-12-11T22:06:35.121Z,-2.38
2022-12-11T22:09:02.849Z,-2.17
2022-12-11T22:11:33.052Z,-2.86
2022-12-11T22:14:00.875Z,-2.65
2022-12-11T22:16:29.831Z,-2.77
2022-12-11T22:18:57.294Z,-2.46
2022-12-11T22:21:24.759Z,-2.79
2022-12-11T22:23:53.624Z,-2.61
2022-12-11T22:26:23.577Z,-2.47
2022-12-11T22:28:51.643Z,-2.13
2022-12-11T22:31:21.644Z,-2.27
2022-12-11T22:33:53.477Z,-1.71
2022-12-11T22:36:21.479Z,-2.66
2022-12-11T22:38:49.019Z,-2.84
2022-12-11T22:41:23.313Z,-2.72
2022-12-11T22:43:51.100Z,-2.75
2022-12-11T22:46:20.446Z,-2.63
2022-12-11T22:48:48.091Z,-2.78
2022-12-11T22:51:17.300Z,-2.07
2022-12-11T22:53:44.982Z,-2.45
2022-12-11T22:56:14.055Z,-2.49
2022-12-11T22:58:42.827Z,-2.58
2022-12-11T23:01:12.381Z,-2.07
2022-12-11T23:03:40.399Z,-1.83
2022-12-11T23:06:09.212Z,-1.66
2022-12-11T23:08:38.838Z,-1.63
2022-12-11T23:11:11.351Z,-2.08
2022-12-11T23:13:38.813Z,-1.98
2022-12-11T23:16:06.776Z,-2.21
2022-12-11T23:18:34.383Z,-2.12
2022-12-11T23:21:02.352Z,-2.70
2022-12-11T23:23:30.100Z,-2.17
2022-12-11T23:25:59.422Z,-2.51
2022-12-11T23:28:26.905Z,-2.49
2022-12-11T23:30:54.960Z,-2.08
2022-12-11T23:33:22.572Z,-1.97
2022-12-11T23:35:50.035Z,-2.30
2022-12-11T23:38:18.142Z,-1.87
2022-12-11T23:40:45.599Z,-2.21
2022-12-11T23:43:14.424Z,-2.69
2022-12-11T23:45:44.401Z,-2.78
2022-12-11T23:48:12.615Z,-2.87
2022-12-11T23:50:40.720Z,-2.29
2022-12-11T23:53:08.578Z,-1.94
2022-12-11T23:55:38.768Z,-2.26
2022-12-11T23:58:06.459Z,-2.33
